createdAt,value
2018-04-11T00:01:47.334Z,87.14
2018-04-11T00:04:14.865Z,88.13
2018-04-11T00:06:42.447Z,86.10
2018-04-11T00:09:09.985Z,87.97
2018-04-11T00:11:37.537Z,87.93
2018-04-11T00:14:05.081Z,88.45
2018-04-11T00:16:32.667Z,86.81
2018-04-11T00:19:00.188Z,85.68
2018-04-11T00:21:27.736Z,87.04
2018-04-11T00:23:55.274Z,88.15
2018-04-11T00:26:22.842Z,84.93
2018-04-11T00:28:50.377Z,87.54
2018-04-11T00:31:17.936Z,87.16
2018-04-11T00:33:45.475Z,88.06
2018-04-11T00:36:13.046Z,88.34
2018-04-11T00:38:40.652Z,88.30
2018-04-11T00:41:08.211Z,86.78
2018-04-11T00:43:35.754Z,86.59
2018-04-11T00:46:03.344Z,87.13
2018-04-11T00:48:30.887Z,85.92
2018-04-11T00:50:58.460Z,86.67
2018-04-11T00:53:27.739Z,88.17
2018-04-11T00:55:55.872Z,88.49
2018-04-11T00:58:23.423Z,84.12
2018-04-11T01:00:50.997Z,86.38
2018-04-11T01:03:18.548Z,87.13
2018-04-11T01:05:46.104Z,87.52
2018-04-11T01:08:13.650Z,86.97
2018-04-11T01:10:41.361Z,87.68
2018-04-11T01:13:08.931Z,86.62
2018-04-11T01:15:36.477Z,88.10
2018-04-11T01:18:04.028Z,86.48
2018-04-11T01:20:31.560Z,86.49
2018-04-11T01:22:59.169Z,85.96
2018-04-11T01:25:26.728Z,86.34
2018-04-11T01:27:54.302Z,86.75
2018-04-11T01:30:21.836Z,86.13
2018-04-11T01:32:49.427Z,86.15
2018-04-11T01:35:16.989Z,85.12
2018-04-11T01:37:44.567Z,83.96
2018-04-11T01:40:12.108Z,84.23
2018-04-11T01:42:39.716Z,85.38
2018-04-11T01:45:07.295Z,86.14
2018-04-11T01:47:36.110Z,85.56
2018-04-11T01:50:25.115Z,85.67
2018-04-11T01:52:52.665Z,85.67
2018-04-11T01:55:20.239Z,86.32
2018-04-11T01:57:47.784Z,86.40
2018-04-11T02:00:15.355Z,86.60
2018-04-11T02:02:42.914Z,86.30
2018-04-11T02:05:10.496Z,85.29
2018-04-11T02:07:38.019Z,86.67
2018-04-11T02:10:05.630Z,86.49
2018-04-11T02:12:33.176Z,85.89
2018-04-11T02:15:00.737Z,86.12
2018-04-11T02:17:28.338Z,86.58
2018-04-11T02:19:56.543Z,86.53
2018-04-11T02:22:24.064Z,87.14
2018-04-11T02:24:51.618Z,87.17
2018-04-11T02:27:19.140Z,86.45
2018-04-11T02:29:46.715Z,85.30
2018-04-11T02:32:14.248Z,85.34
2018-04-11T02:34:41.879Z,85.02
2018-04-11T02:37:09.416Z,85.64
2018-04-11T02:39:37.576Z,86.05
2018-04-11T02:42:05.130Z,87.18
2018-04-11T02:44:33.104Z,86.57
2018-04-11T02:47:00.645Z,86.60
2018-04-11T02:49:28.659Z,86.65
2018-04-11T02:51:56.193Z,86.86
2018-04-11T02:54:23.744Z,87.27
2018-04-11T02:56:51.302Z,86.78
2018-04-11T02:59:18.820Z,85.16
2018-04-11T03:01:46.401Z,83.68
2018-04-11T03:04:13.950Z,83.67
2018-04-11T03:06:41.538Z,84.41
2018-04-11T03:09:09.085Z,84.73
2018-04-11T03:11:36.627Z,85.19
2018-04-11T03:14:04.171Z,84.97
2018-04-11T03:16:31.735Z,84.34
2018-04-11T03:18:59.249Z,84.63
2018-04-11T03:21:26.818Z,83.86
2018-04-11T03:23:54.378Z,85.37
2018-04-11T03:26:21.951Z,85.90
2018-04-11T03:28:49.489Z,86.87
2018-04-11T03:31:17.069Z,84.66
2018-04-11T03:33:44.602Z,85.80
2018-04-11T03:36:12.162Z,83.78
2018-04-11T03:38:39.682Z,84.68
2018-04-11T03:41:07.253Z,84.00
2018-04-11T03:43:34.803Z,84.08
2018-04-11T03:46:02.393Z,84.76
2018-04-11T03:48:29.938Z,84.77
2018-04-11T03:50:57.496Z,83.99
2018-04-11T03:53:25.066Z,84.62
2018-04-11T03:55:52.685Z,85.20
2018-04-11T03:58:20.230Z,84.47
2018-04-11T04:00:47.788Z,85.43
2018-04-11T04:03:15.390Z,86.29
2018-04-11T04:05:42.965Z,85.49
2018-04-11T04:08:10.497Z,84.75
2018-04-11T04:10:38.058Z,85.05
2018-04-11T04:13:05.655Z,85.04
2018-04-11T04:15:45.125Z,85.07
2018-04-11T04:18:25.077Z,83.08
2018-04-11T04:20:52.607Z,83.87
2018-04-11T04:23:20.546Z,84.53
2018-04-11T04:25:48.085Z,84.31
2018-04-11T04:28:16.157Z,83.18
2018-04-11T04:30:43.707Z,82.81
2018-04-11T04:33:11.277Z,83.08
2018-04-11T04:35:38.850Z,82.95
2018-04-11T04:38:06.397Z,82.83
2018-04-11T04:40:33.967Z,83.86
2018-04-11T04:43:03.233Z,82.71
2018-04-11T04:45:39.186Z,82.65
2018-04-11T04:48:18.482Z,83.44
2018-04-11T04:50:51.189Z,83.77
2018-04-11T04:53:22.058Z,82.63
2018-04-11T04:55:50.514Z,82.38
2018-04-11T04:58:18.072Z,82.78
2018-04-11T05:00:46.376Z,83.21
2018-04-11T05:03:13.945Z,83.04
2018-04-11T05:05:42.142Z,82.01
2018-04-11T05:08:09.765Z,82.48
2018-04-11T05:10:37.305Z,82.30
2018-04-11T05:13:04.866Z,82.63
2018-04-11T05:15:33.716Z,81.28
2018-04-11T05:18:01.573Z,81.88
2018-04-11T05:20:29.116Z,82.86
2018-04-11T05:22:57.339Z,82.44
2018-04-11T05:25:24.874Z,83.39
2018-04-11T05:27:52.770Z,82.95
2018-04-11T05:30:20.353Z,83.69
2018-04-11T05:32:48.363Z,81.98
2018-04-11T05:35:17.025Z,82.01
2018-04-11T05:37:44.579Z,80.79
2018-04-11T05:40:12.679Z,80.58
2018-04-11T05:42:40.199Z,79.26
2018-04-11T05:45:08.517Z,79.57
2018-04-11T05:47:37.370Z,79.30
2018-04-11T05:50:22.188Z,78.79
2018-04-11T05:52:56.134Z,80.06
2018-04-11T05:55:36.185Z,78.56
2018-04-11T05:58:15.718Z,79.20
2018-04-11T06:00:44.916Z,77.66
2018-04-11T06:03:19.996Z,79.37
2018-04-11T06:05:55.301Z,79.58
2018-04-11T06:08:30.841Z,79.82
2018-04-11T06:11:07.599Z,80.08
2018-04-11T06:13:57.662Z,79.80
2018-04-11T06:16:50.156Z,78.85
2018-04-11T06:19:24.854Z,78.54
2018-04-11T06:22:08.126Z,78.41
2018-04-11T06:24:38.346Z,77.81
2018-04-11T06:27:15.629Z,78.09
2018-04-11T06:29:47.773Z,77.96
2018-04-11T06:32:28.478Z,78.50
2018-04-11T06:35:07.092Z,79.19
2018-04-11T06:37:43.364Z,78.78
2018-04-11T06:40:34.605Z,78.09
2018-04-11T06:43:28.508Z,77.82
2018-04-11T06:46:02.842Z,78.09
2018-04-11T06:48:39.135Z,78.81
2018-04-11T06:51:18.379Z,78.11
2018-04-11T06:53:52.738Z,77.65
2018-04-11T06:56:31.713Z,77.38
2018-04-11T06:59:08.199Z,77.29
2018-04-11T07:01:40.253Z,78.20
2018-04-11T07:04:11.206Z,79.27
2018-04-11T07:06:45.398Z,78.71
2018-04-11T07:09:32.376Z,77.21
2018-04-11T07:12:05.560Z,78.74
2018-04-11T07:14:39.801Z,78.18
2018-04-11T07:17:27.208Z,78.10
2018-04-11T07:19:58.241Z,77.48
2018-04-11T07:22:31.956Z,77.16
2018-04-11T07:24:59.997Z,77.27
2018-04-11T07:27:35.435Z,76.33
2018-04-11T07:30:05.735Z,76.07
2018-04-11T07:32:34.415Z,75.43
2018-04-11T07:35:09.300Z,76.46
2018-04-11T07:37:44.597Z,77.13
2018-04-11T07:40:17.157Z,76.88
2018-04-11T07:42:47.409Z,77.33
2018-04-11T07:45:18.415Z,76.78
2018-04-11T07:47:54.375Z,77.23
2018-04-11T07:50:32.079Z,78.05
2018-04-11T07:53:02.006Z,78.75
2018-04-11T07:55:38.835Z,78.76
2018-04-11T07:58:09.385Z,78.44
2018-04-11T08:00:43.514Z,78.35
2018-04-11T08:03:12.067Z,78.47
2018-04-11T08:05:48.713Z,79.93
2018-04-11T08:08:18.469Z,78.72
2018-04-11T08:10:46.303Z,79.74
2018-04-11T08:13:20.388Z,78.00
2018-04-11T08:15:54.553Z,78.28
2018-04-11T08:18:22.104Z,78.59
2018-04-11T08:20:53.364Z,79.28
2018-04-11T08:23:31.448Z,79.40
2018-04-11T08:26:04.144Z,78.46
2018-04-11T08:28:31.686Z,78.16
2018-04-11T08:30:59.360Z,78.06
2018-04-11T08:33:26.902Z,78.74
2018-04-11T08:35:54.526Z,78.43
2018-04-11T08:38:22.101Z,77.99
2018-04-11T08:40:49.699Z,78.28
2018-04-11T08:43:17.253Z,78.03
2018-04-11T08:45:45.380Z,78.23
2018-04-11T08:48:12.931Z,78.69
2018-04-11T08:50:40.927Z,78.67
2018-04-11T08:53:08.500Z,78.39
2018-04-11T08:55:36.357Z,78.55
2018-04-11T08:58:03.924Z,78.52
2018-04-11T09:00:31.474Z,78.81
2018-04-11T09:02:59.014Z,79.11
2018-04-11T09:05:26.578Z,78.18
2018-04-11T09:07:54.167Z,78.44
2018-04-11T09:10:21.722Z,78.58
2018-04-11T09:12:49.315Z,78.00
2018-04-11T09:15:16.860Z,78.44
2018-04-11T09:17:44.425Z,78.69
2018-04-11T09:20:12.005Z,79.47
2018-04-11T09:22:39.585Z,78.77
2018-04-11T09:25:07.120Z,79.52
2018-04-11T09:27:34.667Z,79.87
2018-04-11T09:30:02.215Z,79.90
2018-04-11T09:32:29.820Z,79.94
2018-04-11T09:34:57.335Z,80.39
2018-04-11T09:37:24.889Z,80.97
2018-04-11T09:39:52.443Z,80.83
2018-04-11T09:42:20.029Z,79.86
2018-04-11T09:44:49.452Z,79.57
2018-04-11T09:47:17.367Z,80.53
2018-04-11T09:49:44.941Z,80.05
2018-04-11T09:52:12.474Z,80.61
2018-04-11T09:54:40.040Z,80.12
2018-04-11T09:57:07.577Z,79.93
2018-04-11T09:59:35.122Z,79.68
2018-04-11T10:02:06.333Z,78.26
2018-04-11T10:04:33.902Z,78.49
2018-04-11T10:07:01.464Z,79.13
2018-04-11T10:09:28.992Z,79.17
2018-04-11T10:11:56.572Z,79.83
2018-04-11T10:14:24.121Z,79.58
2018-04-11T10:16:51.809Z,80.32
2018-04-11T10:19:19.348Z,80.63
2018-04-11T10:21:47.470Z,79.89
2018-04-11T10:24:15.034Z,80.50
2018-04-11T10:26:42.958Z,79.32
2018-04-11T10:29:10.532Z,79.16
2018-04-11T10:31:38.350Z,79.74
2018-04-11T10:34:05.930Z,79.33
2018-04-11T10:36:33.482Z,79.64
2018-04-11T10:39:01.073Z,79.24
2018-04-11T10:41:28.605Z,80.88
2018-04-11T10:43:56.146Z,79.72
2018-04-11T10:46:23.678Z,79.58
2018-04-11T10:48:51.276Z,79.43
2018-04-11T10:51:18.854Z,78.42
2018-04-11T10:53:46.465Z,78.99
2018-04-11T10:56:14.081Z,78.95
2018-04-11T10:58:41.664Z,79.28
2018-04-11T11:01:09.312Z,79.34
2018-04-11T11:03:36.922Z,79.44
2018-04-11T11:06:04.446Z,80.93
2018-04-11T11:08:32.014Z,80.18
2018-04-11T11:10:59.577Z,80.38
2018-04-11T11:13:27.284Z,80.07
2018-04-11T11:15:54.823Z,80.05
2018-04-11T11:18:23.092Z,80.46
2018-04-11T11:20:58.018Z,80.28
2018-04-11T11:23:25.569Z,81.27
2018-04-11T11:25:53.709Z,80.81
2018-04-11T11:28:21.268Z,80.29
2018-04-11T11:30:49.221Z,79.73
2018-04-11T11:33:16.792Z,79.91
2018-04-11T11:35:44.713Z,80.13
2018-04-11T11:38:12.313Z,79.75
2018-04-11T11:40:40.090Z,80.79
2018-04-11T11:43:07.644Z,80.69
2018-04-11T11:45:35.200Z,80.51
2018-04-11T11:48:02.966Z,80.74
2018-04-11T11:50:30.501Z,80.50
2018-04-11T11:52:58.065Z,81.09
2018-04-11T11:55:25.720Z,81.40
2018-04-11T11:57:53.885Z,81.51
2018-04-11T12:00:21.463Z,81.78
2018-04-11T12:02:49.693Z,81.28
2018-04-11T12:05:17.241Z,81.06
2018-04-11T12:07:45.298Z,81.65
2018-04-11T12:10:12.959Z,81.61
2018-04-11T12:12:40.557Z,81.78
2018-04-11T12:15:08.380Z,81.55
2018-04-11T12:17:36.004Z,80.78
2018-04-11T12:20:03.597Z,81.02
2018-04-11T12:22:31.396Z,81.39
2018-04-11T12:24:59.123Z,80.98
2018-04-11T12:27:26.688Z,80.00
2018-04-11T12:29:54.759Z,79.86
2018-04-11T12:32:23.306Z,77.90
2018-04-11T12:34:51.245Z,77.41
2018-04-11T12:37:18.855Z,78.15
2018-04-11T12:39:46.375Z,77.92
2018-04-11T12:42:13.935Z,76.66
2018-04-11T12:44:41.473Z,76.66
2018-04-11T12:47:09.042Z,77.78
2018-04-11T12:49:36.597Z,76.86
2018-04-11T12:52:04.222Z,75.78
2018-04-11T12:54:31.751Z,75.08
2018-04-11T12:56:59.313Z,76.41
2018-04-11T12:59:26.871Z,75.69
2018-04-11T13:01:54.420Z,74.53
2018-04-11T13:04:21.976Z,73.99
2018-04-11T13:06:50.388Z,74.10
2018-04-11T13:09:17.945Z,73.82
2018-04-11T13:11:45.850Z,74.82
2018-04-11T13:14:13.377Z,75.38
2018-04-11T13:16:40.923Z,74.60
2018-04-11T13:19:08.468Z,74.77
2018-04-11T13:21:36.054Z,74.44
2018-04-11T13:24:03.595Z,71.75
2018-04-11T13:26:31.168Z,71.31
2018-04-11T13:28:58.712Z,70.83
2018-04-11T13:31:26.333Z,71.47
2018-04-11T13:33:53.917Z,70.98
2018-04-11T13:36:21.473Z,71.87
2018-04-11T13:38:48.998Z,71.69
2018-04-11T13:41:16.723Z,70.34
2018-04-11T13:43:44.277Z,69.96
2018-04-11T13:46:12.357Z,69.68
2018-04-11T13:48:39.911Z,67.15
2018-04-11T13:51:07.824Z,67.57
2018-04-11T13:53:35.378Z,67.59
2018-04-11T13:56:03.362Z,66.91
2018-04-11T13:58:30.928Z,67.49
2018-04-11T14:00:58.508Z,65.70
2018-04-11T14:03:26.095Z,66.29
2018-04-11T14:05:53.634Z,64.52
2018-04-11T14:08:21.321Z,66.38
2018-04-11T14:10:48.874Z,66.42
2018-04-11T14:13:16.462Z,66.45
2018-04-11T14:15:44.025Z,67.32
2018-04-11T14:18:12.635Z,68.88
2018-04-11T14:20:40.229Z,67.97
2018-04-11T14:23:08.307Z,67.48
2018-04-11T14:25:35.840Z,67.06
2018-04-11T14:28:03.888Z,67.01
2018-04-11T14:30:31.477Z,67.42
2018-04-11T14:32:59.423Z,68.59
2018-04-11T14:35:27.012Z,68.94
2018-04-11T14:37:54.574Z,67.70
2018-04-11T14:40:22.145Z,68.20
2018-04-11T14:42:49.703Z,68.53
2018-04-11T14:45:17.263Z,69.51
2018-04-11T14:47:45.378Z,68.85
2018-04-11T14:50:12.970Z,68.28
2018-04-11T14:52:40.779Z,68.13
2018-04-11T14:55:08.306Z,69.76
2018-04-11T14:57:35.926Z,68.92
2018-04-11T15:00:03.503Z,70.51
2018-04-11T15:02:31.037Z,70.10
2018-04-11T15:04:58.702Z,70.09
2018-04-11T15:07:26.349Z,69.31
2018-04-11T15:09:53.937Z,69.43
2018-04-11T15:12:21.486Z,70.92
2018-04-11T15:14:49.087Z,68.87
2018-04-11T15:17:16.626Z,68.87
2018-04-11T15:19:44.224Z,66.70
2018-04-11T15:22:11.789Z,67.49
2018-04-11T15:24:39.359Z,67.03
2018-04-11T15:27:12.575Z,66.59
2018-04-11T15:29:40.149Z,64.58
2018-04-11T15:32:08.705Z,65.59
2018-04-11T15:34:36.992Z,64.70
2018-04-11T15:37:04.627Z,65.91
2018-04-11T15:39:32.892Z,66.08
2018-04-11T15:42:00.482Z,66.56
2018-04-11T15:44:28.284Z,65.69
2018-04-11T15:46:55.910Z,65.29
2018-04-11T15:49:23.444Z,65.24
2018-04-11T15:51:51.079Z,65.11
2018-04-11T15:54:18.679Z,64.69
2018-04-11T15:56:46.288Z,65.47
2018-04-11T15:59:13.844Z,65.61
2018-04-11T16:01:42.688Z,65.22
2018-04-11T16:04:10.249Z,65.14
2018-04-11T16:06:38.410Z,65.67
2018-04-11T16:09:05.987Z,66.69
2018-04-11T16:11:33.744Z,67.01
2018-04-11T16:14:01.431Z,66.90
2018-04-11T16:16:28.975Z,66.13
2018-04-11T16:18:56.598Z,65.74
2018-04-11T16:21:24.191Z,66.61
2018-04-11T16:23:51.817Z,66.76
2018-04-11T16:26:19.362Z,66.60
2018-04-11T16:28:47.721Z,66.83
2018-04-11T16:31:15.276Z,67.02
2018-04-11T16:33:43.599Z,66.95
2018-04-11T16:36:11.140Z,66.99
2018-04-11T16:38:39.510Z,66.96
2018-04-11T16:41:07.095Z,64.90
2018-04-11T16:43:34.626Z,64.47
2018-04-11T16:46:02.261Z,64.26
2018-04-11T16:48:29.796Z,64.45
2018-04-11T16:50:57.427Z,65.02
2018-04-11T16:53:24.962Z,64.87
2018-04-11T16:55:52.685Z,67.12
2018-04-11T16:58:20.636Z,65.92
2018-04-11T17:00:48.554Z,66.48
2018-04-11T17:03:16.727Z,66.65
2018-04-11T17:05:44.870Z,67.08
2018-04-11T17:08:12.445Z,67.70
2018-04-11T17:10:40.970Z,67.80
2018-04-11T17:13:09.186Z,68.16
2018-04-11T17:15:36.780Z,67.06
2018-04-11T17:18:04.997Z,67.40
2018-04-11T17:20:44.967Z,67.90
2018-04-11T17:26:27.839Z,67.73
2018-04-11T17:29:07.669Z,67.15
2018-04-11T17:31:35.912Z,67.00
2018-04-11T17:34:03.465Z,67.45
2018-04-11T17:36:31.172Z,66.82
2018-04-11T17:38:58.774Z,67.46
2018-04-11T17:41:26.319Z,66.62
2018-04-11T17:43:53.901Z,67.00
2018-04-11T17:46:21.431Z,68.11
2018-04-11T17:48:49.050Z,67.82
2018-04-11T17:51:16.579Z,67.48
2018-04-11T17:53:44.213Z,68.04
2018-04-11T17:56:11.742Z,67.93
2018-04-11T17:58:39.343Z,68.28
2018-04-11T18:01:06.888Z,68.73
2018-04-11T18:03:34.462Z,68.37
2018-04-11T18:06:01.981Z,68.62
2018-04-11T18:08:29.570Z,68.76
2018-04-11T18:10:57.116Z,68.66
2018-04-11T18:13:24.705Z,68.51
2018-04-11T18:15:52.250Z,68.66
2018-04-11T18:18:19.842Z,69.11
2018-04-11T18:20:47.369Z,68.79
2018-04-11T18:23:15.968Z,69.23
2018-04-11T18:25:43.522Z,69.15
2018-04-11T18:28:11.676Z,69.36
2018-04-11T18:30:39.223Z,69.57
2018-04-11T18:33:07.484Z,69.48
2018-04-11T18:35:35.092Z,69.63
2018-04-11T18:38:02.637Z,69.55
2018-04-11T18:40:30.233Z,69.56
2018-04-11T18:42:58.997Z,69.77
2018-04-11T18:45:26.860Z,70.19
2018-04-11T18:47:54.385Z,70.69
2018-04-11T18:50:22.368Z,70.60
2018-04-11T18:52:49.960Z,70.78
2018-04-11T18:55:17.843Z,71.09
2018-04-11T18:57:45.399Z,71.31
2018-04-11T19:00:12.937Z,71.48
2018-04-11T19:02:40.513Z,71.75
2018-04-11T19:05:08.044Z,71.54
2018-04-11T19:07:35.618Z,71.84
2018-04-11T19:10:03.309Z,71.90
2018-04-11T19:12:30.899Z,72.51
2018-04-11T19:14:58.440Z,72.32
2018-04-11T19:17:26.009Z,72.52
2018-04-11T19:19:53.538Z,72.73
2018-04-11T19:22:21.117Z,72.66
2018-04-11T19:24:48.643Z,73.11
2018-04-11T19:27:16.270Z,72.87
2018-04-11T19:29:43.831Z,73.23
2018-04-11T19:32:11.411Z,73.02
2018-04-11T19:34:38.958Z,73.32
2018-04-11T19:37:06.559Z,73.73
2018-04-11T19:39:34.077Z,73.93
2018-04-11T19:42:01.693Z,73.77
2018-04-11T19:44:29.254Z,74.07
2018-04-11T19:46:57.590Z,74.28
2018-04-11T19:49:25.157Z,74.54
2018-04-11T19:51:53.213Z,74.21
2018-04-11T19:54:20.751Z,74.13
2018-04-11T19:56:48.864Z,73.85
2018-04-11T19:59:16.542Z,74.11
2018-04-11T20:01:44.091Z,73.67
2018-04-11T20:04:11.668Z,73.61
2018-04-11T20:06:39.221Z,73.49
2018-04-11T20:09:06.797Z,73.59
2018-04-11T20:11:34.368Z,73.45
2018-04-11T20:14:01.930Z,73.60
2018-04-11T20:16:29.488Z,74.10
2018-04-11T20:18:57.055Z,73.55
2018-04-11T20:21:24.620Z,73.91
2018-04-11T20:23:52.245Z,74.08
2018-04-11T20:26:19.824Z,74.59
2018-04-11T20:28:47.399Z,74.68
2018-04-11T20:31:14.944Z,74.13
2018-04-11T20:33:42.498Z,73.85
2018-04-11T20:36:10.088Z,74.42
2018-04-11T20:38:37.670Z,74.29
2018-04-11T20:41:05.222Z,74.18
2018-04-11T20:43:32.825Z,74.54
2018-04-11T20:46:00.386Z,74.68
2018-04-11T20:48:27.944Z,74.16
2018-04-11T20:50:56.138Z,74.32
2018-04-11T20:53:23.739Z,74.18
2018-04-11T20:55:51.305Z,74.67
2018-04-11T20:58:18.864Z,74.75
2018-04-11T21:00:46.406Z,74.79
2018-04-11T21:03:13.997Z,74.84
2018-04-11T21:05:41.597Z,74.00
2018-04-11T21:08:09.740Z,73.94
2018-04-11T21:10:37.304Z,73.44
2018-04-11T21:13:05.169Z,73.50
2018-04-11T21:15:32.715Z,73.32
2018-04-11T21:18:00.754Z,73.39
2018-04-11T21:20:28.314Z,73.32
2018-04-11T21:22:55.876Z,73.21
2018-04-11T21:25:23.466Z,73.04
2018-04-11T21:27:50.998Z,72.88
2018-04-11T21:30:18.599Z,72.98
2018-04-11T21:32:46.145Z,73.47
2018-04-11T21:35:13.725Z,72.99
2018-04-11T21:37:41.248Z,72.97
2018-04-11T21:40:09.016Z,73.30
2018-04-11T21:42:36.549Z,73.87
2018-04-11T21:45:04.115Z,73.93
2018-04-11T21:47:31.655Z,74.96
2018-04-11T21:49:59.237Z,74.18
2018-04-11T21:52:26.788Z,73.82
2018-04-11T21:54:54.303Z,74.54
2018-04-11T21:57:21.821Z,74.02
2018-04-11T21:59:49.374Z,74.31
2018-04-11T22:02:16.921Z,73.25
2018-04-11T22:04:44.507Z,73.51
2018-04-11T22:07:12.064Z,73.29
2018-04-11T22:09:39.623Z,73.03
2018-04-11T22:12:07.160Z,72.65
2018-04-11T22:14:34.719Z,72.28
2018-04-11T22:17:02.273Z,72.86
2018-04-11T22:19:29.827Z,71.58
2018-04-11T22:21:57.370Z,71.82
2018-04-11T22:24:25.087Z,72.44
2018-04-11T22:26:52.605Z,72.89
2018-04-11T22:29:20.219Z,72.87
2018-04-11T22:31:47.800Z,73.12
2018-04-11T22:34:15.367Z,73.29
2018-04-11T22:36:42.883Z,73.08
2018-04-11T22:39:10.452Z,73.50
2018-04-11T22:41:37.981Z,73.42
2018-04-11T22:44:05.562Z,73.57
2018-04-11T22:46:33.114Z,73.80
2018-04-11T22:49:00.673Z,74.00
2018-04-11T22:51:28.194Z,73.87
2018-04-11T22:53:55.772Z,73.87
2018-04-11T22:56:23.301Z,74.23
2018-04-11T22:58:50.856Z,74.20
2018-04-11T23:01:18.407Z,74.23
2018-04-11T23:03:45.972Z,74.21
2018-04-11T23:06:13.517Z,74.57
2018-04-11T23:08:41.071Z,74.46
2018-04-11T23:11:08.609Z,74.62
2018-04-11T23:13:36.152Z,74.68
2018-04-11T23:16:03.694Z,75.31
2018-04-11T23:18:31.280Z,74.81
2018-04-11T23:20:58.833Z,74.88
2018-04-11T23:23:26.405Z,75.05
2018-04-11T23:25:53.952Z,74.91
2018-04-11T23:28:21.519Z,75.08
2018-04-11T23:30:49.076Z,74.99
2018-04-11T23:33:16.649Z,75.30
2018-04-11T23:35:44.213Z,75.68
2018-04-11T23:38:11.803Z,75.37
2018-04-11T23:40:39.362Z,75.15
2018-04-11T23:43:07.529Z,75.17
2018-04-11T23:45:35.293Z,75.30
2018-04-11T23:48:03.327Z,76.22
2018-04-11T23:50:30.863Z,75.92
2018-04-11T23:52:58.689Z,75.58
2018-04-11T23:55:26.258Z,75.65
2018-04-11T23:57:54.184Z,75.17
